sensor_id;sensor_type;location;lat;lon;timestamp;temperature;humidity
17726;DHT22;8983;53.156;17.960;2023-08-30T00:00:02;17.70;99.90
17726;DHT22;8983;53.156;17.960;2023-08-30T00:02:30;17.70;99.90
17726;DHT22;8983;53.156;17.960;2023-08-30T00:04:59;17.70;99.90
17726;DHT22;8983;53.156;17.960;2023-08-30T00:07:28;17.70;99.90
17726;DHT22;8983;53.156;17.960;2023-08-30T00:09:58;17.70;99.90
17726;DHT22;8983;53.156;17.960;2023-08-30T00:12:26;17.70;99.90
17726;DHT22;8983;53.156;17.960;2023-08-30T00:14:54;17.70;99.90
17726;DHT22;8983;53.156;17.960;2023-08-30T00:17:23;17.80;99.90
17726;DHT22;8983;53.156;17.960;2023-08-30T00:19:51;17.70;99.90
17726;DHT22;8983;53.156;17.960;2023-08-30T00:22:21;17.70;99.90
17726;DHT22;8983;53.156;17.960;2023-08-30T00:24:51;17.70;99.90
17726;DHT22;8983;53.156;17.960;2023-08-30T00:27:20;17.70;99.90
17726;DHT22;8983;53.156;17.960;2023-08-30T00:29:48;17.70;99.90
17726;DHT22;8983;53.156;17.960;2023-08-30T00:32:16;17.60;99.90
17726;DHT22;8983;53.156;17.960;2023-08-30T00:34:44;17.60;99.90
17726;DHT22;8983;53.156;17.960;2023-08-30T00:37:12;17.60;99.90
17726;DHT22;8983;53.156;17.960;2023-08-30T00:39:41;17.60;99.90
17726;DHT22;8983;53.156;17.960;2023-08-30T00:42:10;17.60;99.90
17726;DHT22;8983;53.156;17.960;2023-08-30T00:44:38;17.60;99.90
17726;DHT22;8983;53.156;17.960;2023-08-30T00:47:07;17.70;99.90
17726;DHT22;8983;53.156;17.960;2023-08-30T00:49:35;17.70;99.90
17726;DHT22;8983;53.156;17.960;2023-08-30T00:52:07;17.70;99.90
17726;DHT22;8983;53.156;17.960;2023-08-30T00:54:36;17.60;99.90
17726;DHT22;8983;53.156;17.960;2023-08-30T00:57:05;17.70;99.90
17726;DHT22;8983;53.156;17.960;2023-08-30T00:59:35;17.70;99.90
17726;DHT22;8983;53.156;17.960;2023-08-30T01:02:04;17.70;99.90
17726;DHT22;8983;53.156;17.960;2023-08-30T01:04:32;17.70;99.90
17726;DHT22;8983;53.156;17.960;2023-08-30T01:07:00;17.70;99.90
17726;DHT22;8983;53.156;17.960;2023-08-30T01:09:28;17.70;99.90
17726;DHT22;8983;53.156;17.960;2023-08-30T01:12:00;17.70;99.90
17726;DHT22;8983;53.156;17.960;2023-08-30T01:14:33;17.70;99.90
17726;DHT22;8983;53.156;17.960;2023-08-30T01:17:04;17.70;99.90
17726;DHT22;8983;53.156;17.960;2023-08-30T01:19:42;17.60;99.90
17726;DHT22;8983;53.156;17.960;2023-08-30T01:22:17;17.60;99.90
17726;DHT22;8983;53.156;17.960;2023-08-30T01:24:58;17.60;99.90
17726;DHT22;8983;53.156;17.960;2023-08-30T01:27:34;17.70;99.90
17726;DHT22;8983;53.156;17.960;2023-08-30T01:30:06;17.60;99.90
17726;DHT22;8983;53.156;17.960;2023-08-30T01:32:36;17.60;99.90
17726;DHT22;8983;53.156;17.960;2023-08-30T01:35:06;17.60;99.90
17726;DHT22;8983;53.156;17.960;2023-08-30T01:37:36;17.60;99.90
17726;DHT22;8983;53.156;17.960;2023-08-30T01:40:07;17.60;99.90
17726;DHT22;8983;53.156;17.960;2023-08-30T01:42:38;17.60;99.90
17726;DHT22;8983;53.156;17.960;2023-08-30T01:45:08;17.60;99.90
17726;DHT22;8983;53.156;17.960;2023-08-30T01:47:38;17.60;99.90
17726;DHT22;8983;53.156;17.960;2023-08-30T01:50:07;17.60;99.90
17726;DHT22;8983;53.156;17.960;2023-08-30T01:52:36;17.60;99.90
17726;DHT22;8983;53.156;17.960;2023-08-30T01:55:06;17.70;99.90
17726;DHT22;8983;53.156;17.960;2023-08-30T01:57:37;17.60;99.90
17726;DHT22;8983;53.156;17.960;2023-08-30T02:00:06;17.60;99.90
17726;DHT22;8983;53.156;17.960;2023-08-30T02:02:34;17.60;99.90
17726;DHT22;8983;53.156;17.960;2023-08-30T02:05:03;17.60;99.90
17726;DHT22;8983;53.156;17.960;2023-08-30T02:07:36;17.60;99.90
17726;DHT22;8983;53.156;17.960;2023-08-30T02:10:09;17.60;99.90
17726;DHT22;8983;53.156;17.960;2023-08-30T02:12:42;17.60;99.90
17726;DHT22;8983;53.156;17.960;2023-08-30T02:15:12;17.50;99.90
17726;DHT22;8983;53.156;17.960;2023-08-30T02:17:41;17.60;99.90
17726;DHT22;8983;53.156;17.960;2023-08-30T02:20:11;17.60;99.90
17726;DHT22;8983;53.156;17.960;2023-08-30T02:22:39;17.60;99.90
17726;DHT22;8983;53.156;17.960;2023-08-30T02:25:08;17.60;99.90
17726;DHT22;8983;53.156;17.960;2023-08-30T02:27:38;17.60;99.90
17726;DHT22;8983;53.156;17.960;2023-08-30T02:30:07;17.50;99.90
17726;DHT22;8983;53.156;17.960;2023-08-30T02:32:35;17.50;99.90
17726;DHT22;8983;53.156;17.960;2023-08-30T02:35:04;17.50;99.90
17726;DHT22;8983;53.156;17.960;2023-08-30T02:37:32;17.50;99.90
17726;DHT22;8983;53.156;17.960;2023-08-30T02:40:01;17.50;99.90
17726;DHT22;8983;53.156;17.960;2023-08-30T02:42:29;17.50;99.90
17726;DHT22;8983;53.156;17.960;2023-08-30T02:44:59;17.60;99.90
17726;DHT22;8983;53.156;17.960;2023-08-30T02:47:27;17.50;99.90
17726;DHT22;8983;53.156;17.960;2023-08-30T02:49:55;17.50;99.90
17726;DHT22;8983;53.156;17.960;2023-08-30T02:52:23;17.50;99.90
17726;DHT22;8983;53.156;17.960;2023-08-30T02:54:51;17.50;99.90
17726;DHT22;8983;53.156;17.960;2023-08-30T02:57:19;17.50;99.90
17726;DHT22;8983;53.156;17.960;2023-08-30T02:59:47;17.60;99.90
17726;DHT22;8983;53.156;17.960;2023-08-30T03:02:16;17.60;99.90
17726;DHT22;8983;53.156;17.960;2023-08-30T03:04:44;17.50;99.90
17726;DHT22;8983;53.156;17.960;2023-08-30T03:07:12;17.50;99.90
17726;DHT22;8983;53.156;17.960;2023-08-30T03:09:41;17.50;99.90
17726;DHT22;8983;53.156;17.960;2023-08-30T03:12:09;17.50;99.90
17726;DHT22;8983;53.156;17.960;2023-08-30T03:14:37;17.40;99.90
17726;DHT22;8983;53.156;17.960;2023-08-30T03:17:05;17.50;99.90
17726;DHT22;8983;53.156;17.960;2023-08-30T03:19:34;17.50;99.90
17726;DHT22;8983;53.156;17.960;2023-08-30T03:22:02;17.50;99.90
17726;DHT22;8983;53.156;17.960;2023-08-30T03:24:31;17.40;99.90
17726;DHT22;8983;53.156;17.960;2023-08-30T03:26:59;17.40;99.90
17726;DHT22;8983;53.156;17.960;2023-08-30T03:29:27;17.40;99.90
17726;DHT22;8983;53.156;17.960;2023-08-30T03:31:56;17.40;99.90
17726;DHT22;8983;53.156;17.960;2023-08-30T03:34:24;17.40;99.90
17726;DHT22;8983;53.156;17.960;2023-08-30T03:36:54;17.40;99.90
17726;DHT22;8983;53.156;17.960;2023-08-30T03:39:22;17.30;99.90
17726;DHT22;8983;53.156;17.960;2023-08-30T03:41:51;17.30;99.90
17726;DHT22;8983;53.156;17.960;2023-08-30T03:44:19;17.30;99.90
17726;DHT22;8983;53.156;17.960;2023-08-30T03:46:47;17.30;99.90
17726;DHT22;8983;53.156;17.960;2023-08-30T03:49:15;17.30;99.90
17726;DHT22;8983;53.156;17.960;2023-08-30T03:51:43;17.30;99.90
17726;DHT22;8983;53.156;17.960;2023-08-30T03:54:12;17.30;99.90
17726;DHT22;8983;53.156;17.960;2023-08-30T03:56:43;17.30;99.90
17726;DHT22;8983;53.156;17.960;2023-08-30T03:59:11;17.20;99.90
17726;DHT22;8983;53.156;17.960;2023-08-30T04:01:39;17.30;99.90
17726;DHT22;8983;53.156;17.960;2023-08-30T04:04:08;17.10;99.90
17726;DHT22;8983;53.156;17.960;2023-08-30T04:06:36;17.20;99.90
17726;DHT22;8983;53.156;17.960;2023-08-30T04:09:05;17.20;99.90
17726;DHT22;8983;53.156;17.960;2023-08-30T04:11:34;17.20;99.90
17726;DHT22;8983;53.156;17.960;2023-08-30T04:14:02;17.20;99.90
17726;DHT22;8983;53.156;17.960;2023-08-30T04:16:31;17.20;99.90
17726;DHT22;8983;53.156;17.960;2023-08-30T04:18:59;17.20;99.90
17726;DHT22;8983;53.156;17.960;2023-08-30T04:21:27;17.10;99.90
17726;DHT22;8983;53.156;17.960;2023-08-30T04:23:56;17.10;99.90
17726;DHT22;8983;53.156;17.960;2023-08-30T04:26:24;17.10;99.90
17726;DHT22;8983;53.156;17.960;2023-08-30T04:28:54;17.20;99.90
17726;DHT22;8983;53.156;17.960;2023-08-30T04:31:22;17.10;99.90
17726;DHT22;8983;53.156;17.960;2023-08-30T04:33:50;17.20;99.90
17726;DHT22;8983;53.156;17.960;2023-08-30T04:36:19;17.20;99.90
17726;DHT22;8983;53.156;17.960;2023-08-30T04:38:47;17.20;99.90
17726;DHT22;8983;53.156;17.960;2023-08-30T04:41:28;17.10;99.90
17726;DHT22;8983;53.156;17.960;2023-08-30T04:43:58;17.10;99.90
17726;DHT22;8983;53.156;17.960;2023-08-30T04:46:26;17.10;99.90
17726;DHT22;8983;53.156;17.960;2023-08-30T04:48:54;17.10;99.90
17726;DHT22;8983;53.156;17.960;2023-08-30T04:51:22;17.10;99.90
17726;DHT22;8983;53.156;17.960;2023-08-30T04:53:50;17.00;99.90
17726;DHT22;8983;53.156;17.960;2023-08-30T04:56:18;17.10;99.90
17726;DHT22;8983;53.156;17.960;2023-08-30T04:58:46;17.10;99.90
17726;DHT22;8983;53.156;17.960;2023-08-30T05:01:16;17.00;99.90
17726;DHT22;8983;53.156;17.960;2023-08-30T05:03:44;17.10;99.90
17726;DHT22;8983;53.156;17.960;2023-08-30T05:06:12;17.10;99.90
17726;DHT22;8983;53.156;17.960;2023-08-30T05:08:43;17.20;99.90
17726;DHT22;8983;53.156;17.960;2023-08-30T05:11:11;17.20;99.90
17726;DHT22;8983;53.156;17.960;2023-08-30T05:13:39;17.20;99.90
17726;DHT22;8983;53.156;17.960;2023-08-30T05:16:07;17.20;99.90
17726;DHT22;8983;53.156;17.960;2023-08-30T05:18:37;17.10;99.90
17726;DHT22;8983;53.156;17.960;2023-08-30T05:21:05;17.30;99.90
17726;DHT22;8983;53.156;17.960;2023-08-30T05:23:33;17.30;99.90
17726;DHT22;8983;53.156;17.960;2023-08-30T05:26:01;17.30;99.90
17726;DHT22;8983;53.156;17.960;2023-08-30T05:28:29;17.30;99.90
17726;DHT22;8983;53.156;17.960;2023-08-30T05:30:57;17.30;99.90
17726;DHT22;8983;53.156;17.960;2023-08-30T05:33:26;17.30;99.90
17726;DHT22;8983;53.156;17.960;2023-08-30T05:35:55;17.30;99.90
17726;DHT22;8983;53.156;17.960;2023-08-30T05:38:23;17.30;99.90
17726;DHT22;8983;53.156;17.960;2023-08-30T05:40:51;17.30;99.90
17726;DHT22;8983;53.156;17.960;2023-08-30T05:43:19;17.20;99.90
17726;DHT22;8983;53.156;17.960;2023-08-30T05:45:51;17.40;99.90
17726;DHT22;8983;53.156;17.960;2023-08-30T05:48:19;17.40;99.90
17726;DHT22;8983;53.156;17.960;2023-08-30T05:50:47;17.30;99.90
17726;DHT22;8983;53.156;17.960;2023-08-30T05:53:16;17.40;99.90
17726;DHT22;8983;53.156;17.960;2023-08-30T05:55:44;17.40;99.90
17726;DHT22;8983;53.156;17.960;2023-08-30T05:58:12;17.50;99.90
17726;DHT22;8983;53.156;17.960;2023-08-30T06:00:42;17.50;99.90
17726;DHT22;8983;53.156;17.960;2023-08-30T06:03:10;17.50;99.90
17726;DHT22;8983;53.156;17.960;2023-08-30T06:05:38;17.50;99.90
17726;DHT22;8983;53.156;17.960;2023-08-30T06:08:06;17.50;99.90
17726;DHT22;8983;53.156;17.960;2023-08-30T06:10:37;17.50;99.90
17726;DHT22;8983;53.156;17.960;2023-08-30T06:13:05;17.60;99.90
17726;DHT22;8983;53.156;17.960;2023-08-30T06:15:35;17.40;99.90
17726;DHT22;8983;53.156;17.960;2023-08-30T06:18:04;17.60;99.90
17726;DHT22;8983;53.156;17.960;2023-08-30T06:20:33;17.60;99.90
17726;DHT22;8983;53.156;17.960;2023-08-30T06:23:03;17.60;99.90
17726;DHT22;8983;53.156;17.960;2023-08-30T06:25:31;17.60;99.90
17726;DHT22;8983;53.156;17.960;2023-08-30T06:28:00;17.50;99.90
17726;DHT22;8983;53.156;17.960;2023-08-30T06:30:30;17.60;99.90
17726;DHT22;8983;53.156;17.960;2023-08-30T06:32:58;17.60;99.90
17726;DHT22;8983;53.156;17.960;2023-08-30T06:35:27;17.60;99.90
17726;DHT22;8983;53.156;17.960;2023-08-30T06:37:55;17.60;99.90
17726;DHT22;8983;53.156;17.960;2023-08-30T06:40:25;17.70;99.90
17726;DHT22;8983;53.156;17.960;2023-08-30T06:42:53;17.70;99.90
17726;DHT22;8983;53.156;17.960;2023-08-30T06:45:22;17.60;99.90
17726;DHT22;8983;53.156;17.960;2023-08-30T06:47:50;17.80;99.90
17726;DHT22;8983;53.156;17.960;2023-08-30T06:50:19;17.70;99.90
17726;DHT22;8983;53.156;17.960;2023-08-30T06:52:47;17.80;99.90
17726;DHT22;8983;53.156;17.960;2023-08-30T06:55:16;17.70;99.90
17726;DHT22;8983;53.156;17.960;2023-08-30T06:57:48;17.80;99.90
17726;DHT22;8983;53.156;17.960;2023-08-30T07:00:18;17.80;99.90
17726;DHT22;8983;53.156;17.960;2023-08-30T07:02:47;17.80;99.90
17726;DHT22;8983;53.156;17.960;2023-08-30T07:05:16;17.80;99.90
17726;DHT22;8983;53.156;17.960;2023-08-30T07:07:44;17.90;99.90
17726;DHT22;8983;53.156;17.960;2023-08-30T07:10:12;18.00;99.90
17726;DHT22;8983;53.156;17.960;2023-08-30T07:12:40;17.90;99.90
17726;DHT22;8983;53.156;17.960;2023-08-30T07:15:09;18.00;99.90
17726;DHT22;8983;53.156;17.960;2023-08-30T07:17:37;18.00;99.90
17726;DHT22;8983;53.156;17.960;2023-08-30T07:20:20;18.00;99.90
17726;DHT22;8983;53.156;17.960;2023-08-30T07:22:48;18.00;99.90
17726;DHT22;8983;53.156;17.960;2023-08-30T07:25:16;18.00;99.90
17726;DHT22;8983;53.156;17.960;2023-08-30T07:27:44;18.00;99.90
17726;DHT22;8983;53.156;17.960;2023-08-30T07:30:13;18.00;99.90
17726;DHT22;8983;53.156;17.960;2023-08-30T07:32:41;18.00;99.90
17726;DHT22;8983;53.156;17.960;2023-08-30T07:35:10;18.00;99.90
17726;DHT22;8983;53.156;17.960;2023-08-30T07:37:42;17.90;99.90
17726;DHT22;8983;53.156;17.960;2023-08-30T07:40:10;17.90;99.90
17726;DHT22;8983;53.156;17.960;2023-08-30T07:42:38;17.90;99.90
17726;DHT22;8983;53.156;17.960;2023-08-30T07:45:08;17.90;99.90
17726;DHT22;8983;53.156;17.960;2023-08-30T07:47:36;18.00;99.90
17726;DHT22;8983;53.156;17.960;2023-08-30T07:50:06;18.10;99.90
17726;DHT22;8983;53.156;17.960;2023-08-30T07:52:34;18.10;99.90
17726;DHT22;8983;53.156;17.960;2023-08-30T07:55:13;18.10;99.90
17726;DHT22;8983;53.156;17.960;2023-08-30T07:57:41;18.20;99.90
17726;DHT22;8983;53.156;17.960;2023-08-30T08:00:10;18.20;99.90
17726;DHT22;8983;53.156;17.960;2023-08-30T08:02:39;18.30;99.90
17726;DHT22;8983;53.156;17.960;2023-08-30T08:05:08;18.30;99.90
17726;DHT22;8983;53.156;17.960;2023-08-30T08:07:38;18.30;99.90
17726;DHT22;8983;53.156;17.960;2023-08-30T08:10:07;18.40;99.90
17726;DHT22;8983;53.156;17.960;2023-08-30T08:12:38;18.40;99.90
17726;DHT22;8983;53.156;17.960;2023-08-30T08:15:06;18.40;99.90
17726;DHT22;8983;53.156;17.960;2023-08-30T08:17:34;18.50;99.90
17726;DHT22;8983;53.156;17.960;2023-08-30T08:20:05;18.50;99.90
17726;DHT22;8983;53.156;17.960;2023-08-30T08:22:33;18.40;99.90
17726;DHT22;8983;53.156;17.960;2023-08-30T08:25:02;18.30;99.90
17726;DHT22;8983;53.156;17.960;2023-08-30T08:27:30;18.40;99.90
17726;DHT22;8983;53.156;17.960;2023-08-30T08:29:59;18.40;99.90
17726;DHT22;8983;53.156;17.960;2023-08-30T08:32:28;18.40;99.90
17726;DHT22;8983;53.156;17.960;2023-08-30T08:34:57;18.50;99.90
17726;DHT22;8983;53.156;17.960;2023-08-30T08:37:25;18.50;99.90
17726;DHT22;8983;53.156;17.960;2023-08-30T08:39:53;18.60;99.90
17726;DHT22;8983;53.156;17.960;2023-08-30T08:42:21;18.70;99.90
17726;DHT22;8983;53.156;17.960;2023-08-30T08:44:51;18.80;99.90
17726;DHT22;8983;53.156;17.960;2023-08-30T08:47:21;18.90;99.90
17726;DHT22;8983;53.156;17.960;2023-08-30T08:49:49;19.00;99.90
17726;DHT22;8983;53.156;17.960;2023-08-30T08:52:18;19.10;99.90
17726;DHT22;8983;53.156;17.960;2023-08-30T08:55:00;19.10;99.90
17726;DHT22;8983;53.156;17.960;2023-08-30T08:57:29;19.10;99.90
17726;DHT22;8983;53.156;17.960;2023-08-30T08:59:59;19.20;99.90
17726;DHT22;8983;53.156;17.960;2023-08-30T09:02:28;19.10;99.90
17726;DHT22;8983;53.156;17.960;2023-08-30T09:04:57;19.20;99.90
17726;DHT22;8983;53.156;17.960;2023-08-30T09:07:27;19.10;99.90
17726;DHT22;8983;53.156;17.960;2023-08-30T09:09:57;19.00;99.90
17726;DHT22;8983;53.156;17.960;2023-08-30T09:12:25;18.90;99.90
17726;DHT22;8983;53.156;17.960;2023-08-30T09:14:54;19.10;99.90
17726;DHT22;8983;53.156;17.960;2023-08-30T09:17:23;18.90;99.90
17726;DHT22;8983;53.156;17.960;2023-08-30T09:19:53;18.80;99.90
17726;DHT22;8983;53.156;17.960;2023-08-30T09:22:21;18.80;99.90
17726;DHT22;8983;53.156;17.960;2023-08-30T09:24:49;18.80;99.90
17726;DHT22;8983;53.156;17.960;2023-08-30T09:27:18;18.90;99.90
17726;DHT22;8983;53.156;17.960;2023-08-30T09:29:46;18.90;99.90
17726;DHT22;8983;53.156;17.960;2023-08-30T09:32:20;19.00;99.90
17726;DHT22;8983;53.156;17.960;2023-08-30T09:34:49;19.00;99.90
17726;DHT22;8983;53.156;17.960;2023-08-30T09:37:22;19.00;99.90
17726;DHT22;8983;53.156;17.960;2023-08-30T09:39:52;19.00;99.90
17726;DHT22;8983;53.156;17.960;2023-08-30T09:42:20;19.00;99.90
17726;DHT22;8983;53.156;17.960;2023-08-30T09:44:48;19.00;99.90
17726;DHT22;8983;53.156;17.960;2023-08-30T09:47:17;19.00;99.90
17726;DHT22;8983;53.156;17.960;2023-08-30T09:49:45;19.00;99.90
17726;DHT22;8983;53.156;17.960;2023-08-30T09:52:15;19.10;99.90
17726;DHT22;8983;53.156;17.960;2023-08-30T09:54:45;19.00;99.90
17726;DHT22;8983;53.156;17.960;2023-08-30T09:57:14;19.20;99.90
17726;DHT22;8983;53.156;17.960;2023-08-30T09:59:44;19.20;99.90
17726;DHT22;8983;53.156;17.960;2023-08-30T10:02:13;19.30;99.90
17726;DHT22;8983;53.156;17.960;2023-08-30T10:04:42;19.30;99.90
17726;DHT22;8983;53.156;17.960;2023-08-30T10:07:12;19.30;99.90
17726;DHT22;8983;53.156;17.960;2023-08-30T10:09:41;19.30;99.90
17726;DHT22;8983;53.156;17.960;2023-08-30T10:12:31;19.30;99.90
17726;DHT22;8983;53.156;17.960;2023-08-30T10:15:00;19.20;99.90
17726;DHT22;8983;53.156;17.960;2023-08-30T10:17:31;19.20;99.90
17726;DHT22;8983;53.156;17.960;2023-08-30T10:20:05;19.20;99.90
17726;DHT22;8983;53.156;17.960;2023-08-30T10:22:35;19.20;99.90
17726;DHT22;8983;53.156;17.960;2023-08-30T10:25:08;19.10;99.90
17726;DHT22;8983;53.156;17.960;2023-08-30T10:27:43;19.10;99.90
17726;DHT22;8983;53.156;17.960;2023-08-30T10:30:13;19.00;99.90
17726;DHT22;8983;53.156;17.960;2023-08-30T10:32:43;19.00;99.90
17726;DHT22;8983;53.156;17.960;2023-08-30T10:35:14;18.90;99.90
17726;DHT22;8983;53.156;17.960;2023-08-30T10:37:42;18.90;99.90
17726;DHT22;8983;53.156;17.960;2023-08-30T10:40:21;18.90;99.90
17726;DHT22;8983;53.156;17.960;2023-08-30T10:43:01;18.80;99.90
17726;DHT22;8983;53.156;17.960;2023-08-30T10:45:30;18.80;99.90
17726;DHT22;8983;53.156;17.960;2023-08-30T10:47:59;18.90;99.90
17726;DHT22;8983;53.156;17.960;2023-08-30T10:50:28;18.90;99.90
17726;DHT22;8983;53.156;17.960;2023-08-30T10:52:57;18.90;99.90
17726;DHT22;8983;53.156;17.960;2023-08-30T10:55:25;18.90;99.90
17726;DHT22;8983;53.156;17.960;2023-08-30T10:58:02;18.90;99.90
17726;DHT22;8983;53.156;17.960;2023-08-30T11:00:31;19.00;99.90
17726;DHT22;8983;53.156;17.960;2023-08-30T11:03:00;19.10;99.90
17726;DHT22;8983;53.156;17.960;2023-08-30T11:05:29;19.00;99.90
17726;DHT22;8983;53.156;17.960;2023-08-30T11:07:59;19.10;99.90
17726;DHT22;8983;53.156;17.960;2023-08-30T11:10:27;19.10;99.90
17726;DHT22;8983;53.156;17.960;2023-08-30T11:12:56;19.10;99.90
17726;DHT22;8983;53.156;17.960;2023-08-30T11:15:26;19.20;99.90
17726;DHT22;8983;53.156;17.960;2023-08-30T11:18:02;19.20;99.90
17726;DHT22;8983;53.156;17.960;2023-08-30T11:20:31;19.20;99.90
17726;DHT22;8983;53.156;17.960;2023-08-30T11:22:59;19.00;99.90
17726;DHT22;8983;53.156;17.960;2023-08-30T11:25:30;19.00;99.90
17726;DHT22;8983;53.156;17.960;2023-08-30T11:28:02;19.00;99.90
17726;DHT22;8983;53.156;17.960;2023-08-30T11:30:31;19.00;99.90
17726;DHT22;8983;53.156;17.960;2023-08-30T11:32:59;19.00;99.90
17726;DHT22;8983;53.156;17.960;2023-08-30T11:35:27;19.00;99.90
17726;DHT22;8983;53.156;17.960;2023-08-30T11:37:56;19.10;99.90
17726;DHT22;8983;53.156;17.960;2023-08-30T11:40:24;19.10;99.90
17726;DHT22;8983;53.156;17.960;2023-08-30T11:42:52;19.10;99.90
17726;DHT22;8983;53.156;17.960;2023-08-30T11:45:21;19.10;99.90
17726;DHT22;8983;53.156;17.960;2023-08-30T11:47:50;19.20;99.90
17726;DHT22;8983;53.156;17.960;2023-08-30T11:50:19;19.10;99.90
17726;DHT22;8983;53.156;17.960;2023-08-30T11:52:51;19.00;99.90
17726;DHT22;8983;53.156;17.960;2023-08-30T11:55:20;19.10;99.90
17726;DHT22;8983;53.156;17.960;2023-08-30T11:57:49;19.00;99.90
17726;DHT22;8983;53.156;17.960;2023-08-30T12:00:19;19.00;99.90
17726;DHT22;8983;53.156;17.960;2023-08-30T12:02:47;19.10;99.90
17726;DHT22;8983;53.156;17.960;2023-08-30T12:05:16;19.10;99.90
17726;DHT22;8983;53.156;17.960;2023-08-30T12:07:46;19.10;99.90
17726;DHT22;8983;53.156;17.960;2023-08-30T12:10:17;19.10;99.90
17726;DHT22;8983;53.156;17.960;2023-08-30T12:12:46;19.10;99.90
17726;DHT22;8983;53.156;17.960;2023-08-30T12:15:14;19.10;99.90
17726;DHT22;8983;53.156;17.960;2023-08-30T12:17:43;19.10;99.90
17726;DHT22;8983;53.156;17.960;2023-08-30T12:20:17;19.10;99.90
17726;DHT22;8983;53.156;17.960;2023-08-30T12:22:47;19.20;99.90
17726;DHT22;8983;53.156;17.960;2023-08-30T12:25:19;19.20;99.90
17726;DHT22;8983;53.156;17.960;2023-08-30T12:27:47;19.20;99.90
17726;DHT22;8983;53.156;17.960;2023-08-30T12:30:16;19.30;99.90
17726;DHT22;8983;53.156;17.960;2023-08-30T12:32:44;19.20;99.90
17726;DHT22;8983;53.156;17.960;2023-08-30T12:35:13;19.20;99.90
17726;DHT22;8983;53.156;17.960;2023-08-30T12:37:43;19.20;99.90
17726;DHT22;8983;53.156;17.960;2023-08-30T12:40:11;19.10;99.90
17726;DHT22;8983;53.156;17.960;2023-08-30T12:42:40;19.00;99.90
17726;DHT22;8983;53.156;17.960;2023-08-30T12:45:09;18.90;99.90
17726;DHT22;8983;53.156;17.960;2023-08-30T12:47:37;18.90;99.90
17726;DHT22;8983;53.156;17.960;2023-08-30T12:50:06;18.80;99.90
17726;DHT22;8983;53.156;17.960;2023-08-30T12:52:35;18.70;99.90
17726;DHT22;8983;53.156;17.960;2023-08-30T12:55:05;18.70;99.90
17726;DHT22;8983;53.156;17.960;2023-08-30T12:57:33;18.60;99.90
17726;DHT22;8983;53.156;17.960;2023-08-30T13:00:01;18.50;99.90
17726;DHT22;8983;53.156;17.960;2023-08-30T13:02:29;18.40;99.90
17726;DHT22;8983;53.156;17.960;2023-08-30T13:04:58;18.40;99.90
17726;DHT22;8983;53.156;17.960;2023-08-30T13:07:26;18.30;99.90
17726;DHT22;8983;53.156;17.960;2023-08-30T13:09:54;18.30;99.90
17726;DHT22;8983;53.156;17.960;2023-08-30T13:12:23;18.30;99.90
17726;DHT22;8983;53.156;17.960;2023-08-30T13:14:52;18.30;99.90
17726;DHT22;8983;53.156;17.960;2023-08-30T13:17:20;18.20;99.90
17726;DHT22;8983;53.156;17.960;2023-08-30T13:19:48;18.30;99.90
17726;DHT22;8983;53.156;17.960;2023-08-30T13:22:17;18.20;99.90
17726;DHT22;8983;53.156;17.960;2023-08-30T13:24:45;18.20;99.90
17726;DHT22;8983;53.156;17.960;2023-08-30T13:27:14;18.20;99.90
17726;DHT22;8983;53.156;17.960;2023-08-30T13:29:44;18.20;99.90
17726;DHT22;8983;53.156;17.960;2023-08-30T13:32:12;18.20;99.90
17726;DHT22;8983;53.156;17.960;2023-08-30T13:34:40;18.20;99.90
17726;DHT22;8983;53.156;17.960;2023-08-30T13:37:10;18.20;99.90
17726;DHT22;8983;53.156;17.960;2023-08-30T13:39:38;18.20;99.90
17726;DHT22;8983;53.156;17.960;2023-08-30T13:42:07;18.20;99.90
17726;DHT22;8983;53.156;17.960;2023-08-30T13:44:35;18.20;99.90
17726;DHT22;8983;53.156;17.960;2023-08-30T13:47:05;18.20;99.90
17726;DHT22;8983;53.156;17.960;2023-08-30T13:49:35;18.20;99.90
17726;DHT22;8983;53.156;17.960;2023-08-30T13:52:04;18.20;99.90
17726;DHT22;8983;53.156;17.960;2023-08-30T13:54:32;18.20;99.90
17726;DHT22;8983;53.156;17.960;2023-08-30T13:57:00;18.30;99.90
17726;DHT22;8983;53.156;17.960;2023-08-30T13:59:29;18.40;99.90
17726;DHT22;8983;53.156;17.960;2023-08-30T14:01:57;18.40;99.90
17726;DHT22;8983;53.156;17.960;2023-08-30T14:04:27;18.40;99.90
17726;DHT22;8983;53.156;17.960;2023-08-30T14:06:56;18.40;99.90
17726;DHT22;8983;53.156;17.960;2023-08-30T14:09:24;18.40;99.90
17726;DHT22;8983;53.156;17.960;2023-08-30T14:11:52;18.40;99.90
17726;DHT22;8983;53.156;17.960;2023-08-30T14:14:22;18.50;99.90
17726;DHT22;8983;53.156;17.960;2023-08-30T14:16:50;18.40;99.90
17726;DHT22;8983;53.156;17.960;2023-08-30T14:19:18;18.50;99.90
17726;DHT22;8983;53.156;17.960;2023-08-30T14:21:48;18.40;99.90
17726;DHT22;8983;53.156;17.960;2023-08-30T14:24:16;18.40;99.90
17726;DHT22;8983;53.156;17.960;2023-08-30T14:26:44;18.40;99.90
17726;DHT22;8983;53.156;17.960;2023-08-30T14:29:12;18.40;99.90
17726;DHT22;8983;53.156;17.960;2023-08-30T14:31:40;18.30;99.90
17726;DHT22;8983;53.156;17.960;2023-08-30T14:34:08;18.30;99.90
17726;DHT22;8983;53.156;17.960;2023-08-30T14:36:37;18.20;99.90
17726;DHT22;8983;53.156;17.960;2023-08-30T14:39:06;18.10;99.90
17726;DHT22;8983;53.156;17.960;2023-08-30T14:41:34;18.20;99.90
17726;DHT22;8983;53.156;17.960;2023-08-30T14:44:04;18.20;99.90
17726;DHT22;8983;53.156;17.960;2023-08-30T14:46:32;18.10;99.90
17726;DHT22;8983;53.156;17.960;2023-08-30T14:49:00;18.20;99.90
17726;DHT22;8983;53.156;17.960;2023-08-30T14:51:28;18.10;99.90
17726;DHT22;8983;53.156;17.960;2023-08-30T14:53:57;18.00;99.90
17726;DHT22;8983;53.156;17.960;2023-08-30T14:56:26;18.10;99.90
17726;DHT22;8983;53.156;17.960;2023-08-30T14:58:54;18.10;99.90
17726;DHT22;8983;53.156;17.960;2023-08-30T15:01:23;18.10;99.90
17726;DHT22;8983;53.156;17.960;2023-08-30T15:03:51;18.10;99.90
17726;DHT22;8983;53.156;17.960;2023-08-30T15:06:19;18.10;99.90
17726;DHT22;8983;53.156;17.960;2023-08-30T15:08:48;18.10;99.90
17726;DHT22;8983;53.156;17.960;2023-08-30T15:11:16;18.10;99.90
17726;DHT22;8983;53.156;17.960;2023-08-30T15:13:46;18.10;99.90
17726;DHT22;8983;53.156;17.960;2023-08-30T15:16:14;18.10;99.90
17726;DHT22;8983;53.156;17.960;2023-08-30T15:18:42;18.00;99.90
17726;DHT22;8983;53.156;17.960;2023-08-30T15:21:10;18.20;99.90
17726;DHT22;8983;53.156;17.960;2023-08-30T15:23:38;18.10;99.90
17726;DHT22;8983;53.156;17.960;2023-08-30T15:26:06;18.10;99.90
17726;DHT22;8983;53.156;17.960;2023-08-30T15:28:35;18.20;99.90
17726;DHT22;8983;53.156;17.960;2023-08-30T15:31:05;18.20;99.90
17726;DHT22;8983;53.156;17.960;2023-08-30T15:33:33;18.20;99.90
17726;DHT22;8983;53.156;17.960;2023-08-30T15:36:02;18.30;99.90
17726;DHT22;8983;53.156;17.960;2023-08-30T15:38:30;18.20;99.90
17726;DHT22;8983;53.156;17.960;2023-08-30T15:40:58;18.20;99.90